createdAt,value
2023-05-15T00:00:00.000Z,86.22
2023-05-15T00:15:00.000Z,86.49
2023-05-15T00:30:00.000Z,86.73
2023-05-15T00:45:00.000Z,86.9
2023-05-15T01:00:00.000Z,86.99
2023-05-15T01:15:00.000Z,87.05
2023-05-15T01:30:00.000Z,87.2
2023-05-15T01:45:00.000Z,87.29
2023-05-15T02:00:00.000Z,87.3
2023-05-15T02:15:00.000Z,87.31
2023-05-15T02:30:00.000Z,87.43
2023-05-15T02:45:00.000Z,87.55
2023-05-15T03:00:00.000Z,87.61
2023-05-15T03:15:00.000Z,87.71
2023-05-15T03:30:00.000Z,87.68
2023-05-15T03:45:00.000Z,87.68
2023-05-15T04:00:00.000Z,87.84
2023-05-15T04:15:00.000Z,87.93
2023-05-15T04:30:00.000Z,87.8
2023-05-15T04:45:00.000Z,87.82
2023-05-15T05:00:00.000Z,87.43
2023-05-15T05:15:00.000Z,86.93
2023-05-15T05:30:00.000Z,86.41
2023-05-15T05:45:00.000Z,85.76
2023-05-15T06:00:00.000Z,84.56
2023-05-15T06:15:00.000Z,83.65
2023-05-15T06:30:00.000Z,83.07
2023-05-15T06:45:00.000Z,82.14
2023-05-15T07:00:00.000Z,81.78
2023-05-15T07:15:00.000Z,81.6
2023-05-15T07:30:00.000Z,81.95
2023-05-15T07:45:00.000Z,81.65
2023-05-15T08:00:00.000Z,81.18
2023-05-15T08:15:00.000Z,80.68
2023-05-15T08:30:00.000Z,79.27
2023-05-15T08:45:00.000Z,79.92
2023-05-15T09:00:00.000Z,78.95
2023-05-15T09:15:00.000Z,80.11
2023-05-15T09:30:00.000Z,80.24
2023-05-15T09:45:00.000Z,79.12
2023-05-15T10:00:00.000Z,78.32
2023-05-15T10:15:00.000Z,79.13
2023-05-15T10:30:00.000Z,77.23
2023-05-15T10:45:00.000Z,74.07
2023-05-15T11:00:00.000Z,69.19
2023-05-15T11:15:00.000Z,68.43
2023-05-15T11:30:00.000Z,64.83
2023-05-15T11:45:00.000Z,61.36
2023-05-15T12:00:00.000Z,60.7
2023-05-15T12:15:00.000Z,60.96
2023-05-15T12:30:00.000Z,62.55
2023-05-15T12:45:00.000Z,63.69
2023-05-15T13:00:00.000Z,60.41
2023-05-15T13:15:00.000Z,55.55
2023-05-15T13:30:00.000Z,56.86
2023-05-15T13:45:00.000Z,57.67
2023-05-15T14:00:00.000Z,56.67
2023-05-15T14:15:00.000Z,55.71
2023-05-15T14:30:00.000Z,54.61
2023-05-15T14:45:00.000Z,55.05
2023-05-15T15:00:00.000Z,57.67
2023-05-15T15:15:00.000Z,64.55
2023-05-15T15:30:00.000Z,72.57
2023-05-15T15:45:00.000Z,70.96
2023-05-15T16:00:00.000Z,68.88
2023-05-15T16:15:00.000Z,62.98
2023-05-15T16:30:00.000Z,62.51
2023-05-15T16:45:00.000Z,63.36
2023-05-15T17:00:00.000Z,63.83
2023-05-15T17:15:00.000Z,66.29
2023-05-15T17:30:00.000Z,69.04
2023-05-15T17:45:00.000Z,66.08
2023-05-15T18:00:00.000Z,70.2
2023-05-15T18:15:00.000Z,74.54
2023-05-15T18:30:00.000Z,78.04
2023-05-15T18:45:00.000Z,79.95
2023-05-15T19:00:00.000Z,80.68
2023-05-15T19:15:00.000Z,80.53
2023-05-15T19:30:00.000Z,80.5
2023-05-15T19:45:00.000Z,80.5
2023-05-15T20:00:00.000Z,80.98
2023-05-15T20:15:00.000Z,80.92
2023-05-15T20:30:00.000Z,81.23
2023-05-15T20:45:00.000Z,81.34
2023-05-15T21:00:00.000Z,81.3
2023-05-15T21:15:00.000Z,81.62
2023-05-15T21:30:00.000Z,81.7
2023-05-15T21:45:00.000Z,81.69
2023-05-15T22:00:00.000Z,81.9
2023-05-15T22:15:00.000Z,82.52
2023-05-15T22:30:00.000Z,82.74
2023-05-15T22:45:00.000Z,82.52
2023-05-15T23:00:00.000Z,82.27
2023-05-15T23:15:00.000Z,82.06
2023-05-15T23:30:00.000Z,81.87
2023-05-15T23:45:00.000Z,81.57
